sensor_id;sensor_type;location;lat;lon;timestamp;pressure;altitude;pressure_sealevel;temperature;humidity
15477;BME280;7840;42.702;23.296;2022-12-18T00:01:57;95781.13;;;5.38;100.00
15477;BME280;7840;42.702;23.296;2022-12-18T00:04:26;95781.97;;;5.45;100.00
15477;BME280;7840;42.702;23.296;2022-12-18T00:06:56;95791.47;;;5.46;100.00
15477;BME280;7840;42.702;23.296;2022-12-18T00:09:23;95790.81;;;5.31;100.00
15477;BME280;7840;42.702;23.296;2022-12-18T00:11:54;95788.97;;;5.25;100.00
15477;BME280;7840;42.702;23.296;2022-12-18T00:14:23;95785.56;;;5.31;100.00
15477;BME280;7840;42.702;23.296;2022-12-18T00:16:51;95791.63;;;5.32;100.00
15477;BME280;7840;42.702;23.296;2022-12-18T00:19:19;95788.78;;;5.33;100.00
15477;BME280;7840;42.702;23.296;2022-12-18T00:21:47;95802.91;;;5.26;100.00
15477;BME280;7840;42.702;23.296;2022-12-18T00:24:16;95800.41;;;5.11;100.00
15477;BME280;7840;42.702;23.296;2022-12-18T00:26:48;95792.69;;;5.03;100.00
15477;BME280;7840;42.702;23.296;2022-12-18T00:29:15;95812.25;;;5.00;100.00
15477;BME280;7840;42.702;23.296;2022-12-18T00:31:43;95822.16;;;4.98;100.00
15477;BME280;7840;42.702;23.296;2022-12-18T00:34:12;95813.69;;;5.03;100.00
15477;BME280;7840;42.702;23.296;2022-12-18T00:36:40;95818.56;;;5.06;100.00
15477;BME280;7840;42.702;23.296;2022-12-18T00:39:09;95817.34;;;5.02;100.00
15477;BME280;7840;42.702;23.296;2022-12-18T00:41:38;95821.38;;;5.04;100.00
15477;BME280;7840;42.702;23.296;2022-12-18T00:44:23;95822.19;;;5.05;100.00
15477;BME280;7840;42.702;23.296;2022-12-18T00:46:51;95830.22;;;4.97;100.00
15477;BME280;7840;42.702;23.296;2022-12-18T00:49:20;95822.09;;;4.91;100.00
15477;BME280;7840;42.702;23.296;2022-12-18T00:51:48;95836.38;;;4.82;100.00
15477;BME280;7840;42.702;23.296;2022-12-18T00:54:27;95835.91;;;4.72;100.00
15477;BME280;7840;42.702;23.296;2022-12-18T00:56:58;95835.28;;;4.70;100.00
15477;BME280;7840;42.702;23.296;2022-12-18T00:59:26;95836.25;;;4.62;100.00
15477;BME280;7840;42.702;23.296;2022-12-18T01:01:56;95849.03;;;4.72;100.00
15477;BME280;7840;42.702;23.296;2022-12-18T01:04:24;95848.16;;;4.65;100.00
15477;BME280;7840;42.702;23.296;2022-12-18T01:06:51;95844.53;;;4.66;100.00
15477;BME280;7840;42.702;23.296;2022-12-18T01:09:19;95846.78;;;4.69;100.00
15477;BME280;7840;42.702;23.296;2022-12-18T01:11:46;95840.94;;;4.67;100.00
15477;BME280;7840;42.702;23.296;2022-12-18T01:14:18;95851.94;;;4.56;100.00
15477;BME280;7840;42.702;23.296;2022-12-18T01:16:46;95854.44;;;4.43;100.00
15477;BME280;7840;42.702;23.296;2022-12-18T01:19:13;95876.63;;;4.40;100.00
15477;BME280;7840;42.702;23.296;2022-12-18T01:21:41;95871.44;;;4.47;100.00
15477;BME280;7840;42.702;23.296;2022-12-18T01:24:12;95866.28;;;4.38;100.00
15477;BME280;7840;42.702;23.296;2022-12-18T01:26:40;95866.06;;;4.33;100.00
15477;BME280;7840;42.702;23.296;2022-12-18T01:29:08;95858.00;;;4.35;100.00
15477;BME280;7840;42.702;23.296;2022-12-18T01:31:37;95848.72;;;4.32;100.00
15477;BME280;7840;42.702;23.296;2022-12-18T01:34:05;95874.03;;;4.25;100.00
15477;BME280;7840;42.702;23.296;2022-12-18T01:36:37;95884.91;;;4.22;100.00
15477;BME280;7840;42.702;23.296;2022-12-18T01:39:21;95874.03;;;4.25;100.00
15477;BME280;7840;42.702;23.296;2022-12-18T01:41:49;95878.41;;;4.18;100.00
15477;BME280;7840;42.702;23.296;2022-12-18T01:44:59;95876.78;;;4.17;100.00
15477;BME280;7840;42.702;23.296;2022-12-18T01:51:16;95885.66;;;4.16;100.00
15477;BME280;7840;42.702;23.296;2022-12-18T01:53:57;95871.94;;;4.14;100.00
15477;BME280;7840;42.702;23.296;2022-12-18T01:56:32;95886.47;;;4.17;100.00
15477;BME280;7840;42.702;23.296;2022-12-18T01:59:02;95883.16;;;4.08;100.00
15477;BME280;7840;42.702;23.296;2022-12-18T02:01:39;95886.97;;;4.05;100.00
15477;BME280;7840;42.702;23.296;2022-12-18T02:04:33;95881.47;;;4.00;100.00
15477;BME280;7840;42.702;23.296;2022-12-18T02:07:07;95887.13;;;4.04;100.00
15477;BME280;7840;42.702;23.296;2022-12-18T02:09:43;95890.75;;;4.03;100.00
15477;BME280;7840;42.702;23.296;2022-12-18T02:12:18;95894.94;;;3.97;100.00
15477;BME280;7840;42.702;23.296;2022-12-18T02:14:53;95887.88;;;3.98;100.00
15477;BME280;7840;42.702;23.296;2022-12-18T02:17:25;95895.66;;;4.06;100.00
15477;BME280;7840;42.702;23.296;2022-12-18T02:20:10;95900.81;;;3.99;100.00
15477;BME280;7840;42.702;23.296;2022-12-18T02:22:49;95912.53;;;4.03;100.00
15477;BME280;7840;42.702;23.296;2022-12-18T02:25:35;95912.84;;;3.94;100.00
15477;BME280;7840;42.702;23.296;2022-12-18T02:28:11;95924.28;;;4.07;100.00
15477;BME280;7840;42.702;23.296;2022-12-18T02:33:14;95911.47;;;3.98;100.00
15477;BME280;7840;42.702;23.296;2022-12-18T02:35:43;95913.38;;;3.89;100.00
15477;BME280;7840;42.702;23.296;2022-12-18T02:38:12;95917.47;;;3.92;100.00
15477;BME280;7840;42.702;23.296;2022-12-18T02:40:43;95925.50;;;3.90;100.00
15477;BME280;7840;42.702;23.296;2022-12-18T02:43:15;95917.63;;;3.90;100.00
15477;BME280;7840;42.702;23.296;2022-12-18T02:45:55;95936.53;;;3.86;100.00
15477;BME280;7840;42.702;23.296;2022-12-18T02:48:30;95921.72;;;3.93;100.00
15477;BME280;7840;42.702;23.296;2022-12-18T02:51:07;95934.53;;;3.88;100.00
15477;BME280;7840;42.702;23.296;2022-12-18T02:53:42;95929.31;;;3.88;100.00
15477;BME280;7840;42.702;23.296;2022-12-18T02:56:18;95930.75;;;3.75;100.00
15477;BME280;7840;42.702;23.296;2022-12-18T02:58:55;95920.19;;;3.69;100.00
15477;BME280;7840;42.702;23.296;2022-12-18T03:01:30;95916.66;;;3.76;100.00
15477;BME280;7840;42.702;23.296;2022-12-18T03:04:04;95923.00;;;3.67;100.00
15477;BME280;7840;42.702;23.296;2022-12-18T03:06:39;95928.25;;;3.67;100.00
15477;BME280;7840;42.702;23.296;2022-12-18T03:09:10;95930.75;;;3.75;100.00
15477;BME280;7840;42.702;23.296;2022-12-18T03:11:41;95919.03;;;3.71;100.00
15477;BME280;7840;42.702;23.296;2022-12-18T03:15:01;95924.81;;;3.67;100.00
15477;BME280;7840;42.702;23.296;2022-12-18T03:17:48;95931.22;;;3.79;100.00
15477;BME280;7840;42.702;23.296;2022-12-18T03:20:21;95943.41;;;3.87;100.00
15477;BME280;7840;42.702;23.296;2022-12-18T03:22:53;95940.16;;;3.84;100.00
15477;BME280;7840;42.702;23.296;2022-12-18T03:25:24;95947.03;;;3.86;100.00
15477;BME280;7840;42.702;23.296;2022-12-18T03:27:56;95954.63;;;3.80;100.00
15477;BME280;7840;42.702;23.296;2022-12-18T03:30:27;95951.63;;;3.83;100.00
15477;BME280;7840;42.702;23.296;2022-12-18T03:33:01;95962.09;;;3.83;100.00
15477;BME280;7840;42.702;23.296;2022-12-18T03:35:36;95966.72;;;3.81;100.00
15477;BME280;7840;42.702;23.296;2022-12-18T03:38:05;95971.97;;;3.81;100.00
15477;BME280;7840;42.702;23.296;2022-12-18T03:40:41;95963.81;;;3.76;100.00
15477;BME280;7840;42.702;23.296;2022-12-18T03:43:16;95961.75;;;3.72;100.00
15477;BME280;7840;42.702;23.296;2022-12-18T03:45:51;95966.91;;;3.65;100.00
15477;BME280;7840;42.702;23.296;2022-12-18T03:48:26;95995.97;;;3.70;100.00
15477;BME280;7840;42.702;23.296;2022-12-18T03:50:59;95993.94;;;3.66;100.00
15477;BME280;7840;42.702;23.296;2022-12-18T03:53:36;96004.50;;;3.72;100.00
15477;BME280;7840;42.702;23.296;2022-12-18T03:56:07;96001.69;;;3.74;100.00
15477;BME280;7840;42.702;23.296;2022-12-18T03:58:38;96006.75;;;3.61;100.00
15477;BME280;7840;42.702;23.296;2022-12-18T04:01:12;95987.97;;;3.57;100.00
15477;BME280;7840;42.702;23.296;2022-12-18T04:03:43;96010.81;;;3.63;100.00
15477;BME280;7840;42.702;23.296;2022-12-18T04:06:12;96008.56;;;3.60;100.00
15477;BME280;7840;42.702;23.296;2022-12-18T04:08:41;96001.50;;;3.61;100.00
15477;BME280;7840;42.702;23.296;2022-12-18T04:11:09;96008.56;;;3.60;100.00
15477;BME280;7840;42.702;23.296;2022-12-18T04:13:38;96008.88;;;3.42;100.00
15477;BME280;7840;42.702;23.296;2022-12-18T04:16:06;96023.66;;;3.58;100.00
15477;BME280;7840;42.702;23.296;2022-12-18T04:18:36;96027.59;;;3.54;100.00
15477;BME280;7840;42.702;23.296;2022-12-18T04:21:04;96033.56;;;3.48;100.00
15477;BME280;7840;42.702;23.296;2022-12-18T04:23:34;96041.97;;;3.58;100.00
15477;BME280;7840;42.702;23.296;2022-12-18T04:26:02;96038.06;;;3.54;100.00
15477;BME280;7840;42.702;23.296;2022-12-18T04:28:29;96043.13;;;3.55;100.00
15477;BME280;7840;42.702;23.296;2022-12-18T04:33:23;96060.56;;;3.48;100.00
15477;BME280;7840;42.702;23.296;2022-12-18T04:35:52;96068.38;;;3.34;100.00
15477;BME280;7840;42.702;23.296;2022-12-18T04:38:20;96057.19;;;3.40;100.00
15477;BME280;7840;42.702;23.296;2022-12-18T04:40:47;96070.22;;;3.48;100.00
15477;BME280;7840;42.702;23.296;2022-12-18T04:43:15;96065.94;;;3.32;100.00
15477;BME280;7840;42.702;23.296;2022-12-18T04:45:42;96070.38;;;3.32;100.00
15477;BME280;7840;42.702;23.296;2022-12-18T04:48:10;96079.78;;;3.41;100.00
15477;BME280;7840;42.702;23.296;2022-12-18T04:50:37;96085.53;;;3.36;100.00
15477;BME280;7840;42.702;23.296;2022-12-18T04:53:06;96086.19;;;3.38;100.00
15477;BME280;7840;42.702;23.296;2022-12-18T04:56:01;96100.56;;;3.19;100.00
15477;BME280;7840;42.702;23.296;2022-12-18T04:58:34;96095.97;;;3.21;100.00
15477;BME280;7840;42.702;23.296;2022-12-18T05:03:36;96102.81;;;3.22;100.00
15477;BME280;7840;42.702;23.296;2022-12-18T05:06:04;96106.88;;;3.10;100.00
15477;BME280;7840;42.702;23.296;2022-12-18T05:08:33;96106.78;;;3.18;100.00
15477;BME280;7840;42.702;23.296;2022-12-18T05:11:03;96115.84;;;3.08;100.00
15477;BME280;7840;42.702;23.296;2022-12-18T05:13:47;96121.56;;;3.11;100.00
15477;BME280;7840;42.702;23.296;2022-12-18T05:16:28;96121.31;;;2.98;100.00
15477;BME280;7840;42.702;23.296;2022-12-18T05:18:57;96122.25;;;3.05;100.00
15477;BME280;7840;42.702;23.296;2022-12-18T05:21:25;96118.78;;;3.13;100.00
15477;BME280;7840;42.702;23.296;2022-12-18T05:23:54;96126.50;;;3.06;100.00
15477;BME280;7840;42.702;23.296;2022-12-18T05:26:22;96136.59;;;3.17;100.00
15477;BME280;7840;42.702;23.296;2022-12-18T05:28:50;96144.13;;;3.12;100.00
15477;BME280;7840;42.702;23.296;2022-12-18T05:31:18;96138.91;;;3.12;100.00
15477;BME280;7840;42.702;23.296;2022-12-18T05:33:45;96165.75;;;3.06;100.00
15477;BME280;7840;42.702;23.296;2022-12-18T05:36:15;96152.03;;;3.04;100.00
15477;BME280;7840;42.702;23.296;2022-12-18T05:38:43;96162.25;;;2.91;100.00
15477;BME280;7840;42.702;23.296;2022-12-18T05:41:12;96161.56;;;2.97;100.00
15477;BME280;7840;42.702;23.296;2022-12-18T05:43:40;96168.44;;;2.98;100.00
15477;BME280;7840;42.702;23.296;2022-12-18T05:46:11;96173.31;;;3.01;100.00
15477;BME280;7840;42.702;23.296;2022-12-18T05:48:39;96172.97;;;3.04;100.00
15477;BME280;7840;42.702;23.296;2022-12-18T05:51:09;96169.75;;;2.94;100.00
15477;BME280;7840;42.702;23.296;2022-12-18T05:53:37;96163.88;;;2.92;100.00
15477;BME280;7840;42.702;23.296;2022-12-18T05:56:23;96179.53;;;3.00;100.00
15477;BME280;7840;42.702;23.296;2022-12-18T05:58:53;96173.66;;;2.98;100.00
15477;BME280;7840;42.702;23.296;2022-12-18T06:11:40;96202.16;;;2.93;100.00
15477;BME280;7840;42.702;23.296;2022-12-18T06:14:08;96185.00;;;2.90;100.00
15477;BME280;7840;42.702;23.296;2022-12-18T06:16:36;96191.34;;;2.96;100.00
15477;BME280;7840;42.702;23.296;2022-12-18T06:19:07;96201.13;;;3.02;100.00
15477;BME280;7840;42.702;23.296;2022-12-18T06:21:52;96194.81;;;2.88;100.00
15477;BME280;7840;42.702;23.296;2022-12-18T06:24:32;96209.69;;;2.88;100.00
15477;BME280;7840;42.702;23.296;2022-12-18T06:30:33;96203.44;;;2.97;100.00
15477;BME280;7840;42.702;23.296;2022-12-18T06:33:02;96206.69;;;2.99;100.00
15477;BME280;7840;42.702;23.296;2022-12-18T06:35:51;96203.13;;;2.92;100.00
15477;BME280;7840;42.702;23.296;2022-12-18T06:38:30;96207.78;;;3.13;100.00
15477;BME280;7840;42.702;23.296;2022-12-18T06:41:05;96207.94;;;3.11;100.00
15477;BME280;7840;42.702;23.296;2022-12-18T06:43:36;96218.38;;;3.19;100.00
15477;BME280;7840;42.702;23.296;2022-12-18T06:46:09;96230.38;;;3.06;100.00
15477;BME280;7840;42.702;23.296;2022-12-18T06:48:38;96232.88;;;2.99;100.00
15477;BME280;7840;42.702;23.296;2022-12-18T06:51:07;96233.56;;;2.93;100.00
15477;BME280;7840;42.702;23.296;2022-12-18T06:53:37;96245.63;;;2.94;100.00
15477;BME280;7840;42.702;23.296;2022-12-18T06:56:23;96246.13;;;2.97;100.00
15477;BME280;7840;42.702;23.296;2022-12-18T06:58:51;96241.75;;;2.90;100.00
15477;BME280;7840;42.702;23.296;2022-12-18T07:01:28;96267.72;;;2.99;100.00
15477;BME280;7840;42.702;23.296;2022-12-18T07:03:56;96252.50;;;2.95;100.00
15477;BME280;7840;42.702;23.296;2022-12-18T07:06:25;96247.16;;;2.88;100.00
15477;BME280;7840;42.702;23.296;2022-12-18T07:08:54;96252.03;;;2.91;100.00
15477;BME280;7840;42.702;23.296;2022-12-18T07:11:21;96257.13;;;2.85;100.00
15477;BME280;7840;42.702;23.296;2022-12-18T07:13:53;96258.81;;;2.69;100.00
15477;BME280;7840;42.702;23.296;2022-12-18T07:16:26;96260.44;;;2.70;100.00
15477;BME280;7840;42.702;23.296;2022-12-18T07:19:22;96267.38;;;2.55;100.00
15477;BME280;7840;42.702;23.296;2022-12-18T07:24:52;96261.16;;;2.56;100.00
15477;BME280;7840;42.702;23.296;2022-12-18T07:27:25;96261.78;;;2.58;100.00
15477;BME280;7840;42.702;23.296;2022-12-18T07:29:57;96271.25;;;2.59;100.00
15477;BME280;7840;42.702;23.296;2022-12-18T07:32:43;96269.28;;;2.69;100.00
15477;BME280;7840;42.702;23.296;2022-12-18T07:35:13;96271.56;;;2.72;100.00
15477;BME280;7840;42.702;23.296;2022-12-18T07:37:58;96272.91;;;2.52;100.00
15477;BME280;7840;42.702;23.296;2022-12-18T07:40:26;96272.91;;;2.68;100.00
15477;BME280;7840;42.702;23.296;2022-12-18T07:42:56;96279.91;;;2.60;100.00
15477;BME280;7840;42.702;23.296;2022-12-18T07:45:30;96285.03;;;2.45;100.00
15477;BME280;7840;42.702;23.296;2022-12-18T07:48:20;96278.97;;;2.61;100.00
15477;BME280;7840;42.702;23.296;2022-12-18T07:50:49;96277.81;;;2.63;100.00
15477;BME280;7840;42.702;23.296;2022-12-18T07:53:20;96278.13;;;2.68;100.00
15477;BME280;7840;42.702;23.296;2022-12-18T07:55:48;96290.22;;;2.69;100.00
15477;BME280;7840;42.702;23.296;2022-12-18T07:58:15;96293.81;;;2.68;100.00
15477;BME280;7840;42.702;23.296;2022-12-18T08:00:49;96297.88;;;2.71;100.00
15477;BME280;7840;42.702;23.296;2022-12-18T08:03:19;96301.16;;;2.65;100.00
15477;BME280;7840;42.702;23.296;2022-12-18T08:05:46;96298.91;;;2.62;100.00
15477;BME280;7840;42.702;23.296;2022-12-18T08:08:14;96304.78;;;2.64;100.00
15477;BME280;7840;42.702;23.296;2022-12-18T08:10:42;96304.94;;;2.70;100.00
15477;BME280;7840;42.702;23.296;2022-12-18T08:13:12;96312.28;;;2.59;100.00
15477;BME280;7840;42.702;23.296;2022-12-18T08:15:43;96312.94;;;2.69;100.00
15477;BME280;7840;42.702;23.296;2022-12-18T08:18:15;96319.81;;;2.62;100.00
15477;BME280;7840;42.702;23.296;2022-12-18T08:20:44;96327.50;;;2.63;100.00
15477;BME280;7840;42.702;23.296;2022-12-18T08:23:15;96334.03;;;2.59;100.00
15477;BME280;7840;42.702;23.296;2022-12-18T08:25:58;96342.88;;;2.50;100.00
15477;BME280;7840;42.702;23.296;2022-12-18T08:28:26;96328.78;;;2.67;100.00
15477;BME280;7840;42.702;23.296;2022-12-18T08:30:54;96339.91;;;2.78;100.00
15477;BME280;7840;42.702;23.296;2022-12-18T08:33:22;96340.88;;;2.85;100.00
15477;BME280;7840;42.702;23.296;2022-12-18T08:35:58;96344.94;;;2.95;100.00
15477;BME280;7840;42.702;23.296;2022-12-18T08:38:37;96348.38;;;2.96;100.00
15477;BME280;7840;42.702;23.296;2022-12-18T08:41:07;96347.38;;;2.97;100.00
15477;BME280;7840;42.702;23.296;2022-12-18T08:43:35;96343.81;;;2.90;100.00
15477;BME280;7840;42.702;23.296;2022-12-18T08:46:40;96348.06;;;2.83;100.00
15477;BME280;7840;42.702;23.296;2022-12-18T08:49:12;96357.34;;;2.93;100.00
15477;BME280;7840;42.702;23.296;2022-12-18T08:54:25;96354.94;;;2.84;100.00
15477;BME280;7840;42.702;23.296;2022-12-18T08:57:00;96384.34;;;2.94;100.00
15477;BME280;7840;42.702;23.296;2022-12-18T08:59:45;96365.56;;;2.90;100.00
15477;BME280;7840;42.702;23.296;2022-12-18T09:02:19;96350.31;;;2.94;100.00
15477;BME280;7840;42.702;23.296;2022-12-18T09:05:01;96364.25;;;2.86;100.00
15477;BME280;7840;42.702;23.296;2022-12-18T09:07:30;96361.44;;;2.88;100.00
15477;BME280;7840;42.702;23.296;2022-12-18T09:09:58;96355.25;;;2.81;100.00
15477;BME280;7840;42.702;23.296;2022-12-18T09:12:32;96358.84;;;2.96;100.00
15477;BME280;7840;42.702;23.296;2022-12-18T09:15:05;96348.66;;;3.09;100.00
15477;BME280;7840;42.702;23.296;2022-12-18T09:17:36;96359.00;;;3.03;100.00
15477;BME280;7840;42.702;23.296;2022-12-18T09:20:06;96358.16;;;3.10;100.00
15477;BME280;7840;42.702;23.296;2022-12-18T09:22:51;96344.72;;;3.13;100.00
15477;BME280;7840;42.702;23.296;2022-12-18T09:25:22;96357.16;;;3.11;100.00
15477;BME280;7840;42.702;23.296;2022-12-18T09:27:50;96349.91;;;3.29;100.00
15477;BME280;7840;42.702;23.296;2022-12-18T09:30:22;96360.50;;;3.36;100.00
15477;BME280;7840;42.702;23.296;2022-12-18T09:33:07;96354.09;;;3.47;100.00
15477;BME280;7840;42.702;23.296;2022-12-18T09:35:36;96357.41;;;3.33;100.00
15477;BME280;7840;42.702;23.296;2022-12-18T09:38:06;96358.06;;;3.35;100.00
15477;BME280;7840;42.702;23.296;2022-12-18T09:40:39;96363.59;;;3.40;100.00
15477;BME280;7840;42.702;23.296;2022-12-18T09:43:15;96358.47;;;3.54;100.00
15477;BME280;7840;42.702;23.296;2022-12-18T09:45:47;96359.13;;;3.48;100.00
15477;BME280;7840;42.702;23.296;2022-12-18T09:48:20;96361.59;;;3.50;100.00
15477;BME280;7840;42.702;23.296;2022-12-18T09:51:00;96363.88;;;3.53;100.00
15477;BME280;7840;42.702;23.296;2022-12-18T09:53:54;96362.94;;;3.46;100.00
15477;BME280;7840;42.702;23.296;2022-12-18T09:56:23;96360.31;;;3.46;100.00
15477;BME280;7840;42.702;23.296;2022-12-18T09:58:59;96354.03;;;3.55;100.00
15477;BME280;7840;42.702;23.296;2022-12-18T10:01:28;96340.25;;;3.61;100.00
15477;BME280;7840;42.702;23.296;2022-12-18T10:03:59;96349.69;;;3.70;100.00
15477;BME280;7840;42.702;23.296;2022-12-18T10:06:32;96350.31;;;3.80;100.00
15477;BME280;7840;42.702;23.296;2022-12-18T10:09:15;96349.38;;;3.96;100.00
15477;BME280;7840;42.702;23.296;2022-12-18T10:11:52;96360.63;;;3.82;100.00
15477;BME280;7840;42.702;23.296;2022-12-18T10:14:35;96352.31;;;3.70;100.00
15477;BME280;7840;42.702;23.296;2022-12-18T10:17:17;96354.31;;;3.68;100.00
15477;BME280;7840;42.702;23.296;2022-12-18T10:19:52;96359.75;;;3.90;100.00
15477;BME280;7840;42.702;23.296;2022-12-18T10:22:28;96369.16;;;4.07;100.00
15477;BME280;7840;42.702;23.296;2022-12-18T10:25:05;96373.78;;;3.97;100.00
15477;BME280;7840;42.702;23.296;2022-12-18T10:27:34;96369.47;;;3.81;100.00
15477;BME280;7840;42.702;23.296;2022-12-18T10:30:20;96361.22;;;3.92;100.00
15477;BME280;7840;42.702;23.296;2022-12-18T10:32:48;96366.75;;;3.97;100.00
15477;BME280;7840;42.702;23.296;2022-12-18T10:35:18;96366.59;;;3.99;100.00
15477;BME280;7840;42.702;23.296;2022-12-18T10:38:20;96356.63;;;4.17;100.00
15477;BME280;7840;42.702;23.296;2022-12-18T10:40:52;96352.03;;;4.19;100.00
15477;BME280;7840;42.702;23.296;2022-12-18T10:43:22;96352.38;;;4.16;100.00
15477;BME280;7840;42.702;23.296;2022-12-18T10:46:07;96351.81;;;4.06;100.00
15477;BME280;7840;42.702;23.296;2022-12-18T10:48:47;96356.28;;;4.20;100.00
15477;BME280;7840;42.702;23.296;2022-12-18T10:51:21;96359.97;;;4.34;100.00
15477;BME280;7840;42.702;23.296;2022-12-18T10:54:04;96358.38;;;4.25;100.00
15477;BME280;7840;42.702;23.296;2022-12-18T10:56:42;96357.25;;;4.42;100.00
15477;BME280;7840;42.702;23.296;2022-12-18T10:59:11;96354.81;;;4.41;100.00
15477;BME280;7840;42.702;23.296;2022-12-18T11:02:07;96350.06;;;4.21;100.00
15477;BME280;7840;42.702;23.296;2022-12-18T11:04:51;96359.47;;;4.30;100.00
15477;BME280;7840;42.702;23.296;2022-12-18T11:07:22;96350.88;;;4.22;100.00
15477;BME280;7840;42.702;23.296;2022-12-18T11:10:02;96360.78;;;4.34;100.00
15477;BME280;7840;42.702;23.296;2022-12-18T11:12:44;96361.47;;;4.28;100.00
15477;BME280;7840;42.702;23.296;2022-12-18T11:15:16;96355.63;;;4.18;100.00
15477;BME280;7840;42.702;23.296;2022-12-18T11:18:17;96353.84;;;4.19;100.00
15477;BME280;7840;42.702;23.296;2022-12-18T11:20:53;96360.06;;;4.18;100.00
15477;BME280;7840;42.702;23.296;2022-12-18T11:23:25;96366.47;;;4.15;100.00
15477;BME280;7840;42.702;23.296;2022-12-18T11:26:11;96361.22;;;4.15;100.00
15477;BME280;7840;42.702;23.296;2022-12-18T11:28:47;96365.03;;;4.13;100.00
15477;BME280;7840;42.702;23.296;2022-12-18T11:31:41;96361.88;;;4.17;100.00
15477;BME280;7840;42.702;23.296;2022-12-18T11:34:26;96362.22;;;4.14;100.00
15477;BME280;7840;42.702;23.296;2022-12-18T11:37:11;96367.84;;;4.03;100.00
15477;BME280;7840;42.702;23.296;2022-12-18T11:39:56;96352.06;;;4.11;100.00
15477;BME280;7840;42.702;23.296;2022-12-18T11:42:32;96364.28;;;4.27;100.00
15477;BME280;7840;42.702;23.296;2022-12-18T11:45:27;96368.00;;;4.32;100.00
15477;BME280;7840;42.702;23.296;2022-12-18T11:48:01;96359.84;;;4.27;100.00
15477;BME280;7840;42.702;23.296;2022-12-18T11:50:39;96374.72;;;4.12;100.00
15477;BME280;7840;42.702;23.296;2022-12-18T11:53:12;96375.78;;;4.18;100.00
15477;BME280;7840;42.702;23.296;2022-12-18T11:56:00;96367.53;;;4.06;100.00
15477;BME280;7840;42.702;23.296;2022-12-18T11:58:46;96360.25;;;4.16;100.00
15477;BME280;7840;42.702;23.296;2022-12-18T12:01:28;96354.19;;;4.16;100.00
15477;BME280;7840;42.702;23.296;2022-12-18T12:04:14;96360.41;;;4.15;100.00
15477;BME280;7840;42.702;23.296;2022-12-18T12:06:52;96355.94;;;4.23;100.00
15477;BME280;7840;42.702;23.296;2022-12-18T12:09:32;96364.50;;;4.17;100.00
15477;BME280;7840;42.702;23.296;2022-12-18T12:12:20;96351.81;;;4.06;100.00
15477;BME280;7840;42.702;23.296;2022-12-18T12:15:00;96361.81;;;4.25;100.00
15477;BME280;7840;42.702;23.296;2022-12-18T12:17:36;96358.53;;;4.23;100.00
15477;BME280;7840;42.702;23.296;2022-12-18T12:20:13;96351.44;;;4.09;100.00
15477;BME280;7840;42.702;23.296;2022-12-18T12:23:03;96364.50;;;4.17;100.00
15477;BME280;7840;42.702;23.296;2022-12-18T12:25:39;96352.25;;;4.09;100.00
15477;BME280;7840;42.702;23.296;2022-12-18T12:28:19;96355.34;;;4.13;100.00
15477;BME280;7840;42.702;23.296;2022-12-18T12:31:13;96363.47;;;4.26;100.00
15477;BME280;7840;42.702;23.296;2022-12-18T12:33:51;96367.47;;;4.37;100.00
15477;BME280;7840;42.702;23.296;2022-12-18T12:36:30;96368.97;;;4.31;100.00
15477;BME280;7840;42.702;23.296;2022-12-18T12:39:08;96369.75;;;4.40;100.00
15477;BME280;7840;42.702;23.296;2022-12-18T12:41:52;96369.56;;;4.42;100.00
15477;BME280;7840;42.702;23.296;2022-12-18T12:44:44;96358.53;;;4.23;100.00
15477;BME280;7840;42.702;23.296;2022-12-18T12:47:18;96364.53;;;4.32;100.00
15477;BME280;7840;42.702;23.296;2022-12-18T12:50:17;96362.66;;;4.26;100.00
15477;BME280;7840;42.702;23.296;2022-12-18T12:52:52;96373.28;;;4.24;100.00
15477;BME280;7840;42.702;23.296;2022-12-18T12:55:22;96364.84;;;4.14;100.00
15477;BME280;7840;42.702;23.296;2022-12-18T12:57:57;96364.91;;;4.06;100.00
15477;BME280;7840;42.702;23.296;2022-12-18T13:00:49;96382.34;;;4.22;100.00
15477;BME280;7840;42.702;23.296;2022-12-18T13:03:28;96387.16;;;4.10;100.00
15477;BME280;7840;42.702;23.296;2022-12-18T13:06:09;96390.22;;;3.91;100.00
15477;BME280;7840;42.702;23.296;2022-12-18T13:08:55;96381.06;;;3.87;100.00
15477;BME280;7840;42.702;23.296;2022-12-18T13:11:35;96390.22;;;3.91;100.00
15477;BME280;7840;42.702;23.296;2022-12-18T13:14:23;96398.88;;;3.99;100.00
15477;BME280;7840;42.702;23.296;2022-12-18T13:16:51;96399.09;;;3.81;100.00
15477;BME280;7840;42.702;23.296;2022-12-18T13:19:22;96405.81;;;3.84;100.00
15477;BME280;7840;42.702;23.296;2022-12-18T13:21:57;96404.41;;;3.73;100.00
15477;BME280;7840;42.702;23.296;2022-12-18T13:24:39;96399.75;;;3.83;100.00
15477;BME280;7840;42.702;23.296;2022-12-18T13:30:55;96396.16;;;3.84;100.00
15477;BME280;7840;42.702;23.296;2022-12-18T13:33:50;96394.94;;;3.95;100.00
15477;BME280;7840;42.702;23.296;2022-12-18T13:36:32;96414.78;;;3.90;100.00
15477;BME280;7840;42.702;23.296;2022-12-18T13:39:33;96407.09;;;3.88;100.00
15477;BME280;7840;42.702;23.296;2022-12-18T13:42:32;96405.00;;;3.83;100.00
15477;BME280;7840;42.702;23.296;2022-12-18T13:45:39;96407.78;;;3.82;100.00
15477;BME280;7840;42.702;23.296;2022-12-18T13:48:19;96409.91;;;3.87;100.00
15477;BME280;7840;42.702;23.296;2022-12-18T13:51:03;96425.94;;;3.92;100.00
15477;BME280;7840;42.702;23.296;2022-12-18T13:53:35;96429.09;;;3.79;100.00
15477;BME280;7840;42.702;23.296;2022-12-18T13:56:09;96429.56;;;3.82;100.00
15477;BME280;7840;42.702;23.296;2022-12-18T13:58:45;96427.47;;;3.78;100.00
15477;BME280;7840;42.702;23.296;2022-12-18T14:01:22;96429.59;;;3.74;100.00
15477;BME280;7840;42.702;23.296;2022-12-18T14:03:50;96427.97;;;3.73;100.00
15477;BME280;7840;42.702;23.296;2022-12-18T14:06:18;96428.72;;;3.90;100.00
15477;BME280;7840;42.702;23.296;2022-12-18T14:08:46;96430.50;;;3.90;100.00
15477;BME280;7840;42.702;23.296;2022-12-18T14:11:22;96441.34;;;3.87;100.00
15477;BME280;7840;42.702;23.296;2022-12-18T14:13:50;96440.84;;;3.91;100.00
15477;BME280;7840;42.702;23.296;2022-12-18T14:16:17;96436.31;;;3.77;100.00